Aviation Digital Data Service (ADDS)

Output produced by METARs form (0521 UTC 21 October 2014)
found at http://www.aviationweather.gov/adds/metars/
 
KGED 210454Z AUTO 20003KT 10SM CLR 12/07 A2996 RMK AO2 SLP145 T01220072 401940017